Weather at Key West International Airport

Public forecast

Using degrees Fahrenheit for public forecast. Weather courtesy of forecast.io.

Current aviation weather report (METAR) for Key West International Airport

Report is more than 2 hours old.

2024/06/24 20:53 (retrieved 5 hours ago)

KEYW 242053Z 22006KT 10SM SCT025 BKN037 29/24 A2994 RMK AO2 SLP145 60005 T02940239 56014

Aviation forecast (TAF) for Key West International Airport

Forecast is more than 6 hours old.

2024/06/24 18:33 (retrieved 7 hours ago)

TAF KEYW 241729Z 2418/2518 15006KT P6SM VCSH SCT020 SCT060 BKN090 FM250400 22005KT P6SM SCT060 SCT150